createdAt,value
2023-04-18T00:02:18.369Z,94.30
2023-04-18T00:04:48.359Z,94.30
2023-04-18T00:07:17.741Z,94.30
2023-04-18T00:09:46.067Z,94.30
2023-04-18T00:12:15.530Z,94.30
2023-04-18T00:14:43.832Z,94.30
2023-04-18T00:17:13.509Z,94.20
2023-04-18T00:19:43.389Z,94.30
2023-04-18T00:22:13.201Z,94.20
2023-04-18T00:24:41.713Z,94.10
2023-04-18T00:27:10.031Z,94.10
2023-04-18T00:29:38.426Z,94.10
2023-04-18T00:32:07.024Z,94.00
2023-04-18T00:34:35.394Z,93.80
2023-04-18T00:37:03.670Z,93.90
2023-04-18T00:39:33.410Z,93.90
2023-04-18T00:42:02.617Z,93.90
2023-04-18T00:44:31.359Z,93.90
2023-04-18T00:46:59.742Z,93.80
2023-04-18T00:49:28.944Z,93.90
2023-04-18T00:51:57.781Z,93.80
2023-04-18T00:54:27.430Z,93.80
2023-04-18T00:56:57.485Z,93.60
2023-04-18T00:59:25.836Z,93.70
2023-04-18T01:01:54.331Z,93.70
2023-04-18T01:04:22.824Z,93.70
2023-04-18T01:06:51.367Z,93.60
2023-04-18T01:09:21.281Z,93.60
2023-04-18T01:11:49.615Z,93.60
2023-04-18T01:14:21.062Z,93.50
2023-04-18T01:16:49.604Z,93.50
2023-04-18T01:19:18.465Z,93.50
2023-04-18T01:21:47.441Z,93.40
2023-04-18T01:24:18.630Z,93.50
2023-04-18T01:26:48.885Z,93.50
2023-04-18T01:29:17.503Z,93.30
2023-04-18T01:31:46.146Z,93.30
2023-04-18T01:34:14.803Z,93.30
2023-04-18T01:36:43.418Z,93.40
2023-04-18T01:39:12.263Z,93.40
2023-04-18T01:41:43.365Z,93.30
2023-04-18T01:44:11.983Z,93.40
2023-04-18T01:46:41.017Z,93.50
2023-04-18T01:49:09.957Z,93.50
2023-04-18T01:51:39.293Z,93.50
2023-04-18T01:54:07.633Z,93.50
2023-04-18T01:56:35.991Z,93.50
2023-04-18T01:59:05.752Z,93.40
2023-04-18T02:01:34.067Z,93.50
2023-04-18T02:04:02.570Z,93.50
2023-04-18T02:06:32.169Z,93.50
2023-04-18T02:09:00.478Z,93.40
2023-04-18T02:11:28.815Z,93.40
2023-04-18T02:13:57.579Z,93.40
2023-04-18T02:16:27.323Z,93.30
2023-04-18T02:18:55.705Z,93.20
2023-04-18T02:21:24.521Z,93.20
2023-04-18T02:23:52.826Z,93.20
2023-04-18T02:26:21.156Z,93.20
2023-04-18T02:28:49.485Z,93.00
2023-04-18T02:31:18.965Z,93.00
2023-04-18T02:33:48.907Z,92.80
2023-04-18T02:36:17.256Z,92.80
2023-04-18T02:38:46.069Z,92.90
2023-04-18T02:41:15.300Z,92.80
2023-04-18T02:43:43.664Z,92.70
2023-04-18T02:46:12.014Z,92.70
2023-04-18T02:48:40.328Z,92.80
2023-04-18T02:51:10.888Z,92.70
2023-04-18T02:53:39.125Z,92.70
2023-04-18T02:56:08.505Z,92.70
2023-04-18T02:58:37.017Z,92.50
2023-04-18T03:01:05.448Z,92.90
2023-04-18T03:03:33.807Z,92.90
2023-04-18T03:06:02.216Z,92.60
2023-04-18T03:08:31.924Z,92.60
2023-04-18T03:11:00.261Z,92.60
2023-04-18T03:13:28.571Z,92.50
2023-04-18T03:15:57.129Z,92.50
2023-04-18T03:18:25.887Z,92.50
2023-04-18T03:20:54.210Z,92.40
2023-04-18T03:23:22.524Z,92.30
2023-04-18T03:25:52.304Z,92.40
2023-04-18T03:28:20.621Z,92.40
2023-04-18T03:30:48.934Z,92.30
2023-04-18T03:33:17.540Z,92.20
2023-04-18T03:35:45.946Z,92.20
2023-04-18T03:38:14.249Z,92.20
2023-04-18T03:40:44.520Z,92.20
2023-04-18T03:43:14.259Z,92.10
2023-04-18T03:45:44.172Z,92.10
2023-04-18T03:48:12.493Z,92.10
2023-04-18T03:50:41.007Z,92.10
2023-04-18T03:53:09.333Z,92.10
2023-04-18T03:55:37.803Z,92.00
2023-04-18T03:58:06.352Z,92.00
2023-04-18T04:00:36.060Z,92.00
2023-04-18T04:03:04.604Z,91.80
2023-04-18T04:05:33.083Z,92.00
2023-04-18T04:08:01.518Z,92.00
2023-04-18T04:10:29.874Z,91.90
2023-04-18T04:12:58.132Z,91.90
2023-04-18T04:15:26.448Z,92.00
2023-04-18T04:17:56.205Z,92.10
2023-04-18T04:20:25.939Z,92.10
2023-04-18T04:22:54.243Z,92.10
2023-04-18T04:25:24.271Z,92.10
2023-04-18T04:27:53.781Z,92.00
2023-04-18T04:30:25.417Z,92.00
2023-04-18T04:33:09.164Z,92.00
2023-04-18T04:35:37.729Z,91.80
2023-04-18T04:38:06.078Z,91.80
2023-04-18T04:40:34.413Z,91.50
2023-04-18T04:43:02.724Z,91.60
2023-04-18T04:45:31.281Z,91.70
2023-04-18T04:47:59.867Z,91.60
2023-04-18T04:50:29.648Z,91.50
2023-04-18T04:52:57.934Z,91.50
2023-04-18T04:55:26.370Z,91.30
2023-04-18T04:57:55.655Z,91.20
2023-04-18T05:00:24.255Z,91.30
2023-04-18T05:03:00.177Z,91.20
2023-04-18T05:05:30.218Z,91.30
2023-04-18T05:07:58.574Z,91.20
2023-04-18T05:10:28.606Z,91.00
2023-04-18T05:12:56.957Z,90.40
2023-04-18T05:15:25.667Z,90.60
2023-04-18T05:17:54.049Z,90.60
2023-04-18T05:20:22.569Z,90.40
2023-04-18T05:22:52.383Z,90.30
2023-04-18T05:25:21.136Z,90.10
2023-04-18T05:27:49.452Z,90.20
2023-04-18T05:30:17.864Z,89.60
2023-04-18T05:32:46.838Z,90.10
2023-04-18T05:35:15.453Z,90.10
2023-04-18T05:37:43.815Z,90.00
2023-04-18T05:40:17.835Z,90.00
2023-04-18T05:42:46.133Z,89.40
2023-04-18T05:45:14.443Z,89.60
2023-04-18T05:47:42.800Z,89.70
2023-04-18T05:50:11.602Z,89.30
2023-04-18T05:52:39.998Z,89.20
2023-04-18T05:55:08.733Z,89.40
2023-04-18T05:57:38.634Z,89.60
2023-04-18T06:00:10.212Z,88.80
2023-04-18T06:02:38.711Z,88.70
2023-04-18T06:05:08.171Z,89.00
2023-04-18T06:07:36.966Z,89.10
2023-04-18T06:10:11.217Z,89.20
2023-04-18T06:12:40.941Z,89.40
2023-04-18T06:15:10.767Z,89.40
2023-04-18T06:17:39.178Z,89.30
2023-04-18T06:20:08.478Z,89.00
2023-04-18T06:22:36.838Z,89.20
2023-04-18T06:25:05.718Z,89.00
2023-04-18T06:27:34.051Z,88.70
2023-04-18T06:30:03.952Z,88.70
2023-04-18T06:32:32.290Z,89.10
2023-04-18T06:35:00.627Z,89.30
2023-04-18T06:37:28.958Z,88.80
2023-04-18T06:39:57.234Z,88.40
2023-04-18T06:42:25.635Z,88.10
2023-04-18T06:44:53.998Z,87.30
2023-04-18T06:47:24.240Z,88.00
2023-04-18T06:49:52.549Z,88.40
2023-04-18T06:52:20.938Z,88.60
2023-04-18T06:54:49.212Z,87.80
2023-04-18T06:57:17.542Z,86.10
2023-04-18T06:59:45.862Z,86.60
2023-04-18T07:02:14.224Z,86.20
2023-04-18T07:04:44.313Z,86.40
2023-04-18T07:07:12.727Z,86.60
2023-04-18T07:09:41.056Z,86.00
2023-04-18T07:12:09.452Z,85.50
2023-04-18T07:14:37.860Z,85.40
2023-04-18T07:17:06.446Z,85.50
2023-04-18T07:19:34.889Z,84.80
2023-04-18T07:22:19.580Z,84.90
2023-04-18T07:24:47.920Z,85.10
2023-04-18T07:27:16.529Z,84.50
2023-04-18T07:29:44.929Z,84.40
2023-04-18T07:32:13.255Z,84.00
2023-04-18T07:34:41.539Z,84.20
2023-04-18T07:37:09.990Z,84.20
2023-04-18T07:39:39.773Z,83.40
2023-04-18T07:42:08.544Z,83.00
2023-04-18T07:44:37.114Z,83.30
2023-04-18T07:47:05.601Z,81.90
2023-04-18T07:49:34.358Z,82.10
2023-04-18T07:52:02.736Z,81.80
2023-04-18T07:54:31.093Z,80.90
2023-04-18T07:57:21.315Z,81.90
2023-04-18T08:00:14.574Z,82.00
2023-04-18T08:02:43.177Z,81.00
2023-04-18T08:05:12.137Z,81.50
2023-04-18T08:07:40.536Z,80.70
2023-04-18T08:10:12.206Z,80.50
2023-04-18T08:12:42.058Z,80.50
2023-04-18T08:15:11.364Z,80.00
2023-04-18T08:17:42.740Z,79.80
2023-04-18T08:20:12.960Z,79.90
2023-04-18T08:22:53.766Z,79.60
2023-04-18T08:25:29.787Z,78.80
2023-04-18T08:27:59.557Z,78.50
2023-04-18T08:30:28.162Z,77.80
2023-04-18T08:32:56.674Z,77.20
2023-04-18T08:35:25.212Z,77.20
2023-04-18T08:37:53.509Z,76.20
2023-04-18T08:40:22.456Z,76.10
2023-04-18T08:42:53.838Z,75.00
2023-04-18T08:45:24.410Z,75.50
2023-04-18T08:47:53.468Z,74.80
2023-04-18T08:50:22.052Z,73.40
2023-04-18T08:52:52.324Z,74.40
2023-04-18T08:55:22.417Z,73.90
2023-04-18T08:57:54.181Z,74.50
2023-04-18T09:00:24.389Z,75.10
2023-04-18T09:02:56.867Z,74.50
2023-04-18T09:06:08.425Z,74.10
2023-04-18T09:08:36.836Z,74.70
2023-04-18T09:11:26.042Z,75.00
2023-04-18T09:13:56.425Z,74.10
2023-04-18T09:16:29.373Z,74.10
2023-04-18T09:19:13.122Z,74.10
2023-04-18T09:21:44.553Z,73.80
2023-04-18T09:24:23.968Z,73.50
2023-04-18T09:26:53.994Z,73.70
2023-04-18T09:29:23.653Z,73.30
2023-04-18T09:31:59.864Z,73.20
2023-04-18T09:34:29.041Z,72.50
2023-04-18T09:37:11.069Z,71.40
2023-04-18T09:39:40.404Z,72.30
2023-04-18T09:42:10.539Z,72.70
2023-04-18T09:44:39.513Z,72.80
2023-04-18T09:47:09.524Z,72.30
2023-04-18T09:49:37.832Z,72.70
2023-04-18T09:52:08.710Z,73.10
2023-04-18T09:54:39.709Z,73.10
2023-04-18T09:57:13.023Z,72.40
2023-04-18T09:59:47.736Z,71.80
2023-04-18T10:02:23.737Z,72.70
2023-04-18T10:04:53.185Z,71.80
2023-04-18T10:07:23.039Z,70.80
2023-04-18T10:10:11.118Z,70.40
2023-04-18T10:12:42.449Z,70.00
2023-04-18T10:15:12.388Z,70.70
2023-04-18T10:18:02.684Z,70.40
2023-04-18T10:20:34.782Z,71.10
2023-04-18T10:23:36.368Z,70.50
2023-04-18T10:26:05.599Z,70.60
2023-04-18T10:28:53.142Z,70.60
2023-04-18T10:31:23.831Z,68.70
2023-04-18T10:36:28.555Z,68.20
2023-04-18T10:39:00.970Z,67.90
2023-04-18T10:41:30.846Z,65.00
2023-04-18T10:44:19.627Z,66.70
2023-04-18T10:47:25.740Z,67.50
2023-04-18T10:50:06.307Z,67.10
2023-04-18T10:52:36.335Z,65.40
2023-04-18T10:55:17.805Z,66.80
2023-04-18T10:57:47.586Z,65.80
2023-04-18T11:00:18.528Z,66.00
2023-04-18T11:02:51.755Z,66.10
2023-04-18T11:05:24.619Z,66.90
2023-04-18T11:08:23.725Z,67.30
2023-04-18T11:10:59.760Z,67.60
2023-04-18T11:13:29.324Z,67.70
2023-04-18T11:15:57.671Z,67.20
2023-04-18T11:18:26.052Z,68.00
2023-04-18T11:20:57.767Z,67.20
2023-04-18T11:23:26.159Z,66.20
2023-04-18T11:25:57.173Z,65.50
2023-04-18T11:28:26.096Z,65.70
2023-04-18T11:31:00.242Z,66.00
2023-04-18T11:33:29.744Z,66.50
2023-04-18T11:36:00.506Z,66.90
2023-04-18T11:38:31.199Z,67.10
2023-04-18T11:41:00.424Z,67.30
2023-04-18T11:43:28.701Z,66.60
2023-04-18T11:45:58.557Z,66.90
2023-04-18T11:48:36.223Z,66.90
2023-04-18T11:51:07.584Z,67.00
2023-04-18T11:53:36.649Z,67.40
2023-04-18T11:56:05.795Z,67.10
2023-04-18T11:58:34.748Z,66.50
2023-04-18T12:01:17.401Z,66.70
2023-04-18T12:03:46.295Z,66.80
2023-04-18T12:06:16.218Z,66.90
2023-04-18T12:08:45.236Z,67.20
2023-04-18T12:11:21.634Z,66.90
2023-04-18T12:13:50.171Z,67.00
2023-04-18T12:16:18.717Z,67.20
2023-04-18T12:18:47.938Z,67.50
2023-04-18T12:21:18.173Z,67.60
2023-04-18T12:23:48.229Z,67.70
2023-04-18T12:26:18.833Z,68.00
2023-04-18T12:28:48.199Z,68.10
2023-04-18T12:31:16.715Z,67.60
2023-04-18T12:33:45.026Z,67.80
2023-04-18T12:36:13.438Z,67.70
2023-04-18T12:38:43.207Z,68.10
2023-04-18T12:41:11.483Z,68.30
2023-04-18T12:43:39.772Z,68.60
2023-04-18T12:46:08.229Z,68.80
2023-04-18T12:48:36.578Z,69.00
2023-04-18T12:51:06.970Z,68.90
2023-04-18T12:53:35.273Z,69.10
2023-04-18T12:56:05.317Z,68.80
2023-04-18T12:58:33.689Z,69.70
2023-04-18T13:01:02.967Z,69.10
2023-04-18T13:03:31.923Z,69.10
2023-04-18T13:06:00.592Z,68.80
2023-04-18T13:08:34.811Z,68.90
2023-04-18T13:11:04.575Z,69.30
2023-04-18T13:13:34.456Z,69.20
2023-04-18T13:16:04.503Z,69.30
2023-04-18T13:18:32.924Z,69.60
2023-04-18T13:21:01.438Z,69.70
2023-04-18T13:23:29.772Z,69.90
2023-04-18T13:25:58.041Z,69.90
2023-04-18T13:28:27.968Z,69.70
2023-04-18T13:30:56.606Z,69.70
2023-04-18T13:33:24.861Z,69.70
2023-04-18T13:35:53.363Z,69.70
2023-04-18T13:38:21.785Z,69.90
2023-04-18T13:40:58.111Z,70.00
2023-04-18T13:43:34.350Z,70.10
2023-04-18T13:46:06.354Z,70.00
2023-04-18T13:48:34.718Z,69.80
2023-04-18T13:51:03.680Z,69.90
2023-04-18T13:53:32.154Z,69.80
2023-04-18T13:56:01.895Z,70.00
2023-04-18T13:58:30.256Z,70.40
2023-04-18T14:01:58.173Z,70.60
2023-04-18T14:04:28.301Z,70.80
2023-04-18T14:06:56.826Z,71.00
2023-04-18T14:09:25.466Z,71.10
2023-04-18T14:11:53.786Z,71.40
2023-04-18T14:14:22.049Z,71.20
2023-04-18T14:16:50.361Z,72.00
2023-04-18T14:19:19.182Z,71.30
2023-04-18T14:21:49.387Z,71.70
2023-04-18T14:24:17.725Z,71.70
2023-04-18T14:26:46.092Z,71.90
2023-04-18T14:29:15.318Z,71.90
2023-04-18T14:31:43.948Z,72.00
2023-04-18T14:34:12.345Z,71.90
2023-04-18T14:36:40.688Z,71.80
2023-04-18T14:39:11.255Z,72.00
2023-04-18T14:41:39.807Z,72.00
2023-04-18T14:44:08.392Z,72.20
2023-04-18T14:46:36.968Z,72.50
2023-04-18T14:49:05.385Z,73.50
2023-04-18T14:51:33.871Z,72.70
2023-04-18T14:54:02.273Z,72.90
2023-04-18T14:56:32.104Z,72.90
2023-04-18T14:59:00.625Z,73.00
2023-04-18T15:01:28.952Z,72.90
2023-04-18T15:03:57.454Z,73.10
2023-04-18T15:06:27.288Z,73.40
2023-04-18T15:08:56.754Z,73.50
2023-04-18T15:11:25.110Z,73.50
2023-04-18T15:13:54.847Z,73.90
2023-04-18T15:16:23.593Z,73.30
2023-04-18T15:18:51.966Z,73.50
2023-04-18T15:21:20.263Z,73.80
2023-04-18T15:23:48.602Z,73.70
2023-04-18T15:26:17.079Z,73.70
2023-04-18T15:28:45.410Z,73.90
2023-04-18T15:31:16.065Z,74.00
2023-04-18T15:33:44.358Z,74.00
2023-04-18T15:36:18.381Z,74.00
2023-04-18T15:39:00.267Z,74.10
2023-04-18T15:41:28.619Z,74.30
2023-04-18T15:43:57.012Z,74.50
2023-04-18T15:46:26.832Z,74.60
2023-04-18T15:48:55.201Z,74.80
2023-04-18T15:51:23.609Z,74.80
2023-04-18T15:53:51.885Z,75.00
2023-04-18T15:56:20.957Z,74.90
2023-04-18T15:58:49.222Z,75.00
2023-04-18T16:01:17.614Z,75.00
2023-04-18T16:03:47.501Z,74.90
2023-04-18T16:06:16.699Z,75.00
2023-04-18T16:08:45.100Z,75.00
2023-04-18T16:11:14.054Z,75.00
2023-04-18T16:13:42.481Z,75.00
2023-04-18T16:16:11.081Z,75.00
2023-04-18T16:18:40.561Z,75.20
2023-04-18T16:21:10.248Z,75.40
2023-04-18T16:23:38.539Z,75.60
2023-04-18T16:26:07.570Z,75.80
2023-04-18T16:28:37.772Z,77.00
2023-04-18T16:31:07.197Z,76.60
2023-04-18T16:33:35.628Z,76.60
2023-04-18T16:36:04.613Z,76.70
2023-04-18T16:38:34.385Z,76.90
2023-04-18T16:41:02.741Z,76.90
2023-04-18T16:43:31.507Z,77.00
2023-04-18T16:46:00.610Z,77.10
2023-04-18T16:48:29.240Z,77.20
2023-04-18T16:50:57.949Z,77.10
2023-04-18T16:53:26.762Z,77.10
2023-04-18T16:55:56.827Z,77.30
2023-04-18T16:58:25.239Z,77.50
2023-04-18T17:00:53.797Z,77.70
2023-04-18T17:03:22.535Z,77.90
2023-04-18T17:05:50.886Z,77.80
2023-04-18T17:08:19.380Z,77.90
2023-04-18T17:10:47.776Z,78.20
2023-04-18T17:13:17.881Z,78.30
2023-04-18T17:15:46.270Z,79.10
2023-04-18T17:18:14.644Z,78.50
2023-04-18T17:20:42.945Z,78.60
2023-04-18T17:23:11.236Z,78.70
2023-04-18T17:25:39.503Z,79.00
2023-04-18T17:28:07.862Z,79.50
2023-04-18T17:30:41.479Z,79.40
2023-04-18T17:33:10.568Z,79.60
2023-04-18T17:35:41.425Z,79.40
2023-04-18T17:38:10.615Z,79.60
2023-04-18T17:40:39.530Z,79.70
2023-04-18T17:43:07.892Z,79.90
2023-04-18T17:45:38.666Z,79.90
2023-04-18T17:48:07.482Z,80.20
2023-04-18T17:50:38.165Z,80.30
2023-04-18T17:53:06.446Z,80.50
2023-04-18T17:55:34.824Z,80.60
2023-04-18T17:58:05.321Z,80.60
2023-04-18T18:00:35.113Z,80.60
2023-04-18T18:03:05.310Z,80.60
2023-04-18T18:05:33.750Z,80.90
2023-04-18T18:08:02.118Z,80.90
2023-04-18T18:10:30.937Z,81.20
2023-04-18T18:12:59.487Z,81.10
2023-04-18T18:15:28.544Z,81.00
2023-04-18T18:18:00.324Z,81.20
2023-04-18T18:20:30.927Z,81.30
2023-04-18T18:22:59.918Z,81.10
2023-04-18T18:25:31.400Z,81.30
2023-04-18T18:27:59.846Z,81.10
2023-04-18T18:30:28.346Z,81.30
2023-04-18T18:32:57.552Z,81.50
2023-04-18T18:35:26.028Z,81.40
2023-04-18T18:37:55.743Z,81.30
2023-04-18T18:40:24.268Z,81.30
2023-04-18T18:42:54.762Z,81.40
2023-04-18T18:45:23.280Z,81.40
2023-04-18T18:47:52.788Z,81.40
2023-04-18T18:50:22.676Z,81.30
2023-04-18T18:53:00.904Z,81.40
2023-04-18T18:55:31.717Z,81.40
2023-04-18T18:58:00.112Z,81.40
2023-04-18T19:00:28.491Z,81.40
2023-04-18T19:02:56.942Z,81.50
2023-04-18T19:05:25.656Z,81.60
2023-04-18T19:07:54.350Z,81.40
2023-04-18T19:10:22.657Z,81.10
2023-04-18T19:12:52.424Z,81.40
2023-04-18T19:15:20.810Z,81.40
2023-04-18T19:17:49.187Z,81.30
2023-04-18T19:20:17.951Z,81.40
2023-04-18T19:22:46.261Z,81.60
2023-04-18T19:25:14.651Z,81.50
2023-04-18T19:27:43.945Z,81.50
2023-04-18T19:30:13.961Z,81.50
2023-04-18T19:32:42.434Z,81.40
2023-04-18T19:35:13.237Z,81.50
2023-04-18T19:37:41.602Z,81.60
2023-04-18T19:40:11.213Z,81.50
2023-04-18T19:42:39.562Z,81.30
2023-04-18T19:45:08.962Z,81.10
2023-04-18T19:47:38.679Z,81.10
2023-04-18T19:50:08.498Z,80.90
2023-04-18T19:52:36.809Z,81.00
2023-04-18T19:55:05.401Z,81.10
2023-04-18T19:57:39.587Z,81.10
2023-04-18T20:00:09.310Z,81.10
2023-04-18T20:02:39.309Z,81.00
2023-04-18T20:05:09.401Z,80.80
2023-04-18T20:07:37.959Z,80.80
2023-04-18T20:10:08.961Z,80.70
2023-04-18T20:12:37.355Z,80.90
2023-04-18T20:15:06.527Z,80.70
2023-04-18T20:17:35.131Z,80.70
2023-04-18T20:20:08.234Z,80.50
2023-04-18T20:22:37.985Z,80.50
2023-04-18T20:25:07.108Z,80.50
2023-04-18T20:27:35.456Z,80.50
2023-04-18T20:30:03.903Z,80.50
2023-04-18T20:32:32.267Z,80.20
2023-04-18T20:35:02.676Z,80.10
2023-04-18T20:37:36.774Z,80.10
2023-04-18T20:40:10.714Z,80.00
2023-04-18T20:42:39.921Z,80.00
2023-04-18T20:45:11.248Z,79.90
2023-04-18T20:47:40.308Z,79.80
2023-04-18T20:50:09.815Z,79.80
2023-04-18T20:52:42.659Z,79.80
2023-04-18T20:55:11.813Z,79.60
2023-04-18T20:57:40.159Z,79.70
2023-04-18T21:00:10.559Z,79.80
2023-04-18T21:02:39.149Z,79.70
2023-04-18T21:05:08.064Z,79.70
2023-04-18T21:07:36.430Z,79.80
2023-04-18T21:10:06.744Z,80.80
2023-04-18T21:12:35.153Z,80.10
2023-04-18T21:15:05.547Z,80.40
2023-04-18T21:17:34.013Z,80.40
2023-04-18T21:20:02.363Z,80.40
2023-04-18T21:22:30.774Z,80.40
2023-04-18T21:24:59.021Z,80.40
2023-04-18T21:27:28.778Z,80.50
2023-04-18T21:29:57.110Z,80.80
2023-04-18T21:32:25.458Z,80.90
2023-04-18T21:34:53.759Z,80.80
2023-04-18T21:37:22.085Z,80.80
2023-04-18T21:39:50.488Z,80.70
2023-04-18T21:42:18.808Z,80.80
2023-04-18T21:44:48.565Z,81.10
2023-04-18T21:47:16.923Z,81.10
2023-04-18T21:49:45.495Z,81.40
2023-04-18T21:52:13.839Z,81.30
2023-04-18T21:54:42.173Z,81.30
2023-04-18T21:57:10.451Z,81.30
2023-04-18T21:59:38.997Z,81.20
2023-04-18T22:02:08.765Z,81.00
2023-04-18T22:04:38.225Z,81.00
2023-04-18T22:07:06.667Z,81.10
2023-04-18T22:09:36.422Z,81.20
2023-04-18T22:12:05.244Z,82.50
2023-04-18T22:14:33.602Z,81.70
2023-04-18T22:17:03.380Z,81.70
2023-04-18T22:19:33.394Z,81.90
2023-04-18T22:22:01.917Z,82.00
2023-04-18T22:24:30.351Z,82.00
2023-04-18T22:26:58.619Z,82.00
2023-04-18T22:29:27.107Z,81.90
2023-04-18T22:31:55.492Z,82.00
2023-04-18T22:34:23.951Z,81.90
2023-04-18T22:36:53.619Z,81.90
2023-04-18T22:39:21.918Z,81.90
2023-04-18T22:41:50.240Z,82.00
2023-04-18T22:44:18.658Z,81.90
2023-04-18T22:46:48.233Z,81.80
2023-04-18T22:49:18.050Z,81.80
2023-04-18T22:51:46.579Z,81.70
2023-04-18T22:54:16.491Z,81.70
2023-04-18T22:56:45.063Z,81.70
2023-04-18T22:59:13.369Z,81.90
2023-04-18T23:01:41.860Z,81.70
2023-04-18T23:04:10.353Z,81.70
2023-04-18T23:06:38.863Z,81.60
2023-04-18T23:09:09.274Z,81.50
2023-04-18T23:11:39.092Z,81.50
2023-04-18T23:14:08.752Z,81.60
2023-04-18T23:16:37.067Z,81.60
2023-04-18T23:19:05.952Z,81.60
2023-04-18T23:21:34.353Z,81.60
2023-04-18T23:24:02.780Z,81.60
2023-04-18T23:26:31.104Z,81.60
2023-04-18T23:29:00.864Z,81.70
2023-04-18T23:31:29.396Z,81.60
2023-04-18T23:33:57.774Z,81.60
2023-04-18T23:36:26.364Z,81.60
2023-04-18T23:38:54.850Z,81.70
2023-04-18T23:41:23.208Z,81.70
2023-04-18T23:43:51.589Z,81.70
2023-04-18T23:46:21.438Z,81.70
2023-04-18T23:48:49.737Z,81.70
2023-04-18T23:51:18.024Z,81.70
2023-04-18T23:53:46.412Z,81.60
2023-04-18T23:56:14.746Z,81.70
2023-04-18T23:58:43.167Z,81.70
